Kezdőlap
METAR-TAF:

METAR-TAF

Repülőterek :

Piacenza, Olaszország

földrajzi szélesség: 44-55N, földrajzi hosszúság: 009-44E, magasság: 134 m

Jelenlegi meteorológiai megfigyelések

A jelentés 2 órával és 42 perccel ezelõtt készült, 17:55 UTC
Dél-délnyugati szél 2 kt
Hőmérséklet 7°C
Páratartalom 87%
Légköri nyomás 1030 hPa
Látótávolság: 6000 m

METAR: LIMS 221755Z 20002KT 6000 NSC 07/05 Q1030 RMK SKC VIS MIN 6000 WIND THR30 21003KT WHT

Idő: 21:37 (20:37 UTC)


TAF: hiányzik

Meteorológiai megfigyelések és előrejelzések több, mint 4000 repülőtéren (METAR és TAF jelentéseket).

A térképen piros és sárga pontok jelzik az elérhető meteorológiai állomásokat.

Mozgassa az egeret a pont fölött, hogy megjelenjen az állomás neve.

Azután kattintson az időjárási megfigyelések és előrejelzések megtekintéséhez.

A térkép megváltoztatása: kattintson a fekete keresztel jelölt zöld gombra ráközelítéshez, a vonallal jelölt zöld gombra távolításhoz, vagy a zöld nyilakra a szomszédos térképek eléréséhez.


METAR-TAF: